Terminal Aerodrome Forecast
Issued by NWS Bismarck, ND

Home | Current Version | Previous Version | Graphics & Text | Print | Product List | Glossary On
Versions: 1 2 3 4 5 6 7 8 9 10 11 12 13 14
000
FTUS43 KBIS 302300
TAFBIS
TAF
KBIS 302333Z 3100/3124 07005KT P6SM SCT070
     FM310300 VRB03KT P6SM SKC
     FM310900 VRB03KT P6SM VCFG SKC
     FM311300 07004KT P6SM SKC
     FM311800 02005KT P6SM SCT060=

USA.gov is the U.S. government's official web portal to all federal, state and local government web resources and services.